createdAt,value
2022-10-28T00:02:05.212Z,21.22
2022-10-28T00:04:31.869Z,21.22
2022-10-28T00:06:58.496Z,21.20
2022-10-28T00:09:25.390Z,21.24
2022-10-28T00:11:52.353Z,21.30
2022-10-28T00:14:18.833Z,21.28
2022-10-28T00:16:45.691Z,21.31
2022-10-28T00:19:13.503Z,21.31
2022-10-28T00:21:42.184Z,21.39
2022-10-28T00:24:11.064Z,21.36
2022-10-28T00:26:41.297Z,21.29
2022-10-28T00:29:19.195Z,21.32
2022-10-28T00:31:47.040Z,21.33
2022-10-28T00:34:17.211Z,21.35
2022-10-28T00:36:45.334Z,21.37
2022-10-28T00:39:17.675Z,21.34
2022-10-28T00:41:48.937Z,21.31
2022-10-28T00:44:46.076Z,21.31
2022-10-28T00:47:28.827Z,21.30
2022-10-28T00:50:03.608Z,21.35
2022-10-28T00:52:32.089Z,21.39
2022-10-28T00:55:01.167Z,21.33
2022-10-28T00:57:33.423Z,21.31
2022-10-28T01:00:01.545Z,21.28
2022-10-28T01:02:28.335Z,21.28
2022-10-28T01:04:55.455Z,21.32
2022-10-28T01:07:22.307Z,21.30
2022-10-28T01:09:49.128Z,21.29
2022-10-28T01:12:50.355Z,21.20
2022-10-28T01:15:33.650Z,21.26
2022-10-28T01:18:03.292Z,21.24
2022-10-28T01:20:41.636Z,21.34
2022-10-28T01:23:48.686Z,21.22
2022-10-28T01:26:33.575Z,21.20
2022-10-28T01:29:24.657Z,21.25
2022-10-28T01:31:58.991Z,21.14
2022-10-28T01:35:15.523Z,21.15
2022-10-28T01:38:09.717Z,21.06
2022-10-28T01:40:58.607Z,21.13
2022-10-28T01:43:31.102Z,21.17
2022-10-28T01:46:07.894Z,21.17
2022-10-28T01:48:41.797Z,21.18
2022-10-28T01:51:19.776Z,21.15
2022-10-28T01:53:50.976Z,21.26
2022-10-28T01:56:24.386Z,21.29
2022-10-28T01:58:55.487Z,21.23
2022-10-28T02:01:24.351Z,21.31
2022-10-28T02:03:51.574Z,21.28
2022-10-28T02:06:22.314Z,21.19
2022-10-28T02:13:38.226Z,21.17
2022-10-28T02:16:08.328Z,21.12
2022-10-28T02:19:13.682Z,21.21
2022-10-28T02:21:54.392Z,21.23
2022-10-28T02:24:28.651Z,21.23
2022-10-28T02:27:12.605Z,21.11
2022-10-28T02:29:50.205Z,21.10
2022-10-28T02:32:22.494Z,21.13
2022-10-28T02:34:54.323Z,21.13
2022-10-28T02:37:26.562Z,21.14
2022-10-28T02:39:57.838Z,21.21
2022-10-28T02:42:31.687Z,21.17
2022-10-28T02:45:03.170Z,21.22
2022-10-28T02:47:34.123Z,21.12
2022-10-28T02:50:04.742Z,21.15
2022-10-28T02:52:34.500Z,21.02
2022-10-28T02:55:04.632Z,20.99
2022-10-28T02:57:35.143Z,20.99
2022-10-28T03:00:06.417Z,20.89
2022-10-28T03:02:33.115Z,20.79
2022-10-28T03:04:59.680Z,20.80
2022-10-28T03:07:26.263Z,20.82
2022-10-28T03:09:52.898Z,20.88
2022-10-28T03:12:19.511Z,20.75
2022-10-28T03:14:46.001Z,20.69
2022-10-28T03:17:12.693Z,20.79
2022-10-28T03:19:39.227Z,20.69
2022-10-28T03:22:05.885Z,20.73
2022-10-28T03:24:32.403Z,20.72
2022-10-28T03:26:59.899Z,20.70
2022-10-28T03:29:26.382Z,20.71
2022-10-28T03:31:53.012Z,20.78
2022-10-28T03:34:19.928Z,20.73
2022-10-28T03:36:46.577Z,20.73
2022-10-28T03:39:14.610Z,20.80
2022-10-28T03:41:41.257Z,20.76
2022-10-28T03:44:08.008Z,20.77
2022-10-28T03:46:36.017Z,20.71
2022-10-28T03:49:04.091Z,20.77
2022-10-28T03:51:30.674Z,20.67
2022-10-28T03:53:57.208Z,20.67
2022-10-28T03:56:23.860Z,20.60
2022-10-28T03:58:50.490Z,20.66
2022-10-28T04:01:17.150Z,20.54
2022-10-28T04:03:44.227Z,20.57
2022-10-28T04:06:11.272Z,20.59
2022-10-28T04:08:37.890Z,20.65
2022-10-28T04:11:04.713Z,20.73
2022-10-28T04:13:31.202Z,20.73
2022-10-28T04:15:58.043Z,20.71
2022-10-28T04:18:24.558Z,20.70
2022-10-28T04:20:51.189Z,20.68
2022-10-28T04:23:20.516Z,20.65
2022-10-28T04:25:51.881Z,20.64
2022-10-28T04:28:18.428Z,20.64
2022-10-28T04:30:47.388Z,20.66
2022-10-28T04:33:14.084Z,20.66
2022-10-28T04:35:43.045Z,20.57
2022-10-28T04:38:11.207Z,20.60
2022-10-28T04:40:37.925Z,20.54
2022-10-28T04:43:08.432Z,20.55
2022-10-28T04:45:37.366Z,20.53
2022-10-28T04:48:04.131Z,20.55
2022-10-28T04:50:30.890Z,20.52
2022-10-28T04:52:57.443Z,20.50
2022-10-28T04:55:24.088Z,20.49
2022-10-28T04:57:58.818Z,20.50
2022-10-28T05:00:26.095Z,20.51
2022-10-28T05:02:53.222Z,20.53
2022-10-28T05:05:20.313Z,20.49
2022-10-28T05:07:47.002Z,20.48
2022-10-28T05:10:15.522Z,20.46
2022-10-28T05:12:43.151Z,20.47
2022-10-28T05:15:11.275Z,20.51
2022-10-28T05:17:45.095Z,20.56
2022-10-28T05:20:13.230Z,20.52
2022-10-28T05:22:46.203Z,20.52
2022-10-28T05:25:13.155Z,20.49
2022-10-28T05:27:39.720Z,20.47
2022-10-28T05:30:07.150Z,20.46
2022-10-28T05:32:34.034Z,20.50
2022-10-28T05:35:00.686Z,20.50
2022-10-28T05:37:27.265Z,20.50
2022-10-28T05:39:54.455Z,20.51
2022-10-28T05:42:20.949Z,20.55
2022-10-28T05:44:47.694Z,20.50
2022-10-28T05:47:14.190Z,20.50
2022-10-28T05:49:40.732Z,20.56
2022-10-28T05:52:07.200Z,20.54
2022-10-28T05:54:33.815Z,20.53
2022-10-28T05:57:00.787Z,20.43
2022-10-28T05:59:27.437Z,20.34
2022-10-28T06:01:54.057Z,20.40
2022-10-28T06:04:20.784Z,20.41
2022-10-28T06:06:47.361Z,20.51
2022-10-28T06:09:13.871Z,20.49
2022-10-28T06:11:38.840Z,20.53
2022-10-28T06:14:05.464Z,20.52
2022-10-28T06:16:31.973Z,20.46
2022-10-28T06:18:58.548Z,20.45
2022-10-28T06:21:25.193Z,20.44
2022-10-28T06:23:52.128Z,20.44
2022-10-28T06:26:18.651Z,20.47
2022-10-28T06:28:47.024Z,20.42
2022-10-28T06:31:13.882Z,20.41
2022-10-28T06:33:40.449Z,20.41
2022-10-28T06:36:07.559Z,20.42
2022-10-28T06:38:34.171Z,20.46
2022-10-28T06:41:00.942Z,20.49
2022-10-28T06:43:27.555Z,20.58
2022-10-28T06:45:55.620Z,20.57
2022-10-28T06:48:24.384Z,20.54
2022-10-28T06:50:51.136Z,20.46
2022-10-28T06:53:17.902Z,20.42
2022-10-28T06:55:48.868Z,20.45
2022-10-28T06:58:15.848Z,20.43
2022-10-28T07:00:42.481Z,20.40
2022-10-28T07:03:10.709Z,20.47
2022-10-28T07:05:37.351Z,20.49
2022-10-28T07:08:04.371Z,20.54
2022-10-28T07:10:30.928Z,20.50
2022-10-28T07:12:57.763Z,20.44
2022-10-28T07:15:24.914Z,20.42
2022-10-28T07:17:56.211Z,20.37
2022-10-28T07:20:24.879Z,20.44
2022-10-28T07:22:59.902Z,20.49
2022-10-28T07:25:27.853Z,20.42
2022-10-28T07:27:57.466Z,20.50
2022-10-28T07:30:24.540Z,20.51
2022-10-28T07:32:51.236Z,20.56
2022-10-28T07:35:17.878Z,20.59
2022-10-28T07:37:44.448Z,20.65
2022-10-28T07:40:11.240Z,20.66
2022-10-28T07:42:38.057Z,20.70
2022-10-28T07:45:05.523Z,20.74
2022-10-28T07:47:32.044Z,20.80
2022-10-28T07:49:58.638Z,20.81
2022-10-28T07:52:25.161Z,20.80
2022-10-28T07:54:52.063Z,20.84
2022-10-28T07:57:19.173Z,20.87
2022-10-28T07:59:45.710Z,20.87
2022-10-28T08:02:17.729Z,20.89
2022-10-28T08:04:44.550Z,20.83
2022-10-28T08:07:13.045Z,20.83
2022-10-28T08:09:40.308Z,20.80
2022-10-28T08:12:08.312Z,20.78
2022-10-28T08:14:35.055Z,20.79
2022-10-28T08:17:01.921Z,20.81
2022-10-28T08:19:28.550Z,20.83
2022-10-28T08:21:55.273Z,20.82
2022-10-28T08:24:21.917Z,20.89
2022-10-28T08:26:48.998Z,20.93
2022-10-28T08:29:15.787Z,20.93
2022-10-28T08:31:42.668Z,20.90
2022-10-28T08:34:09.333Z,20.87
2022-10-28T08:36:35.986Z,20.93
2022-10-28T08:39:03.131Z,20.97
2022-10-28T08:41:44.162Z,21.05
2022-10-28T08:44:37.038Z,21.11
2022-10-28T08:47:11.880Z,21.08
2022-10-28T08:49:43.361Z,21.07
2022-10-28T08:52:24.387Z,21.15
2022-10-28T08:54:59.103Z,21.13
2022-10-28T08:57:38.822Z,21.19
2022-10-28T09:00:07.859Z,21.32
2022-10-28T09:02:49.933Z,21.34
2022-10-28T09:05:24.747Z,21.43
2022-10-28T09:07:52.261Z,21.51
2022-10-28T09:10:35.748Z,21.55
2022-10-28T09:13:26.466Z,21.56
2022-10-28T09:16:30.071Z,21.66
2022-10-28T09:18:59.146Z,21.66
2022-10-28T09:21:35.817Z,21.76
2022-10-28T09:24:18.901Z,21.70
2022-10-28T09:27:12.306Z,21.72
2022-10-28T09:29:57.519Z,21.80
2022-10-28T09:32:33.024Z,21.84
2022-10-28T09:35:06.278Z,21.94
2022-10-28T09:37:36.544Z,21.98
2022-10-28T09:40:15.831Z,22.08
2022-10-28T09:43:17.895Z,22.32
2022-10-28T09:45:47.889Z,22.60
2022-10-28T09:48:29.063Z,22.88
2022-10-28T09:50:58.408Z,23.15
2022-10-28T09:53:42.004Z,23.11
2022-10-28T09:58:37.249Z,23.08
2022-10-28T10:01:04.880Z,23.01
2022-10-28T10:03:32.326Z,23.00
2022-10-28T10:06:08.702Z,22.96
2022-10-28T10:08:37.392Z,23.02
2022-10-28T10:11:36.348Z,22.93
2022-10-28T10:14:08.138Z,22.84
2022-10-28T10:16:43.295Z,22.67
2022-10-28T10:19:11.119Z,22.58
2022-10-28T10:21:43.479Z,22.53
2022-10-28T10:24:30.706Z,22.50
2022-10-28T10:27:01.832Z,22.58
2022-10-28T10:29:30.373Z,22.64
2022-10-28T10:32:18.841Z,22.61
2022-10-28T10:35:04.621Z,22.49
2022-10-28T10:37:34.592Z,22.43
2022-10-28T10:40:05.623Z,22.52
2022-10-28T10:42:36.673Z,22.74
2022-10-28T10:45:15.696Z,22.92
2022-10-28T10:47:42.771Z,23.00
2022-10-28T10:53:00.035Z,23.09
2022-10-28T10:55:38.591Z,22.92
2022-10-28T10:58:10.027Z,22.96
2022-10-28T11:00:43.985Z,22.91
2022-10-28T11:03:22.843Z,22.95
2022-10-28T11:06:05.439Z,22.83
2022-10-28T11:08:42.717Z,22.95
2022-10-28T11:11:18.770Z,23.06
2022-10-28T11:13:46.438Z,23.01
2022-10-28T11:16:18.194Z,23.07
2022-10-28T11:18:47.879Z,23.16
2022-10-28T11:21:27.743Z,23.16
2022-10-28T11:24:19.482Z,23.14
2022-10-28T11:27:00.201Z,23.18
2022-10-28T11:29:27.006Z,23.26
2022-10-28T11:32:11.851Z,23.43
2022-10-28T11:35:15.378Z,23.38
2022-10-28T11:38:08.982Z,23.35
2022-10-28T11:40:52.828Z,23.28
2022-10-28T11:43:22.949Z,23.35
2022-10-28T11:46:01.750Z,23.27
2022-10-28T11:48:43.362Z,23.43
2022-10-28T11:51:09.904Z,23.34
2022-10-28T11:53:37.095Z,23.30
2022-10-28T11:56:19.686Z,23.29
2022-10-28T11:59:03.114Z,23.37
2022-10-28T12:01:48.214Z,23.49
2022-10-28T12:04:51.367Z,23.59
2022-10-28T12:07:47.985Z,23.66
2022-10-28T12:10:35.498Z,23.63
2022-10-28T12:13:09.711Z,23.73
2022-10-28T12:16:11.784Z,23.76
2022-10-28T12:18:50.735Z,23.95
2022-10-28T12:24:19.267Z,23.85
2022-10-28T12:26:51.857Z,23.94
2022-10-28T12:29:29.847Z,24.06
2022-10-28T12:32:02.977Z,23.99
2022-10-28T12:34:38.130Z,24.07
2022-10-28T12:37:16.318Z,24.12
2022-10-28T12:39:51.305Z,24.22
2022-10-28T12:42:21.175Z,24.12
2022-10-28T12:44:52.864Z,24.12
2022-10-28T12:47:43.316Z,24.09
2022-10-28T12:50:21.182Z,24.10
2022-10-28T12:53:03.920Z,24.20
2022-10-28T12:55:39.930Z,24.22
2022-10-28T12:58:20.188Z,24.23
2022-10-28T13:00:53.372Z,24.32
2022-10-28T13:03:20.045Z,24.33
2022-10-28T13:05:55.912Z,24.33
2022-10-28T13:09:04.612Z,24.17
2022-10-28T13:11:52.717Z,24.20
2022-10-28T13:14:37.915Z,24.26
2022-10-28T13:17:27.773Z,24.26
2022-10-28T13:20:24.056Z,24.21
2022-10-28T13:23:09.803Z,24.17
2022-10-28T13:25:48.216Z,24.09
2022-10-28T13:28:18.061Z,23.98
2022-10-28T13:31:06.004Z,23.96
2022-10-28T13:33:35.827Z,23.98
2022-10-28T13:36:16.634Z,23.98
2022-10-28T13:38:48.801Z,24.00
2022-10-28T13:41:28.793Z,24.01
2022-10-28T13:43:57.371Z,23.99
2022-10-28T13:47:01.694Z,23.92
2022-10-28T13:49:32.073Z,23.93
2022-10-28T13:52:19.880Z,24.07
2022-10-28T13:54:46.409Z,24.09
2022-10-28T13:57:31.270Z,24.15
2022-10-28T14:00:00.416Z,24.17
2022-10-28T14:02:36.226Z,24.04
2022-10-28T14:05:09.428Z,24.10
2022-10-28T14:07:40.827Z,24.18
2022-10-28T14:10:22.048Z,24.26
2022-10-28T14:12:59.704Z,24.16
2022-10-28T14:15:33.656Z,24.01
2022-10-28T14:18:41.469Z,23.95
2022-10-28T14:21:04.122Z,23.94
2022-10-28T14:24:05.543Z,23.92
2022-10-28T14:26:32.355Z,24.03
2022-10-28T14:28:59.013Z,24.02
2022-10-28T14:31:40.451Z,23.94
2022-10-28T14:34:07.320Z,24.04
2022-10-28T14:36:53.741Z,23.84
2022-10-28T14:39:45.169Z,23.86
2022-10-28T14:42:38.834Z,23.74
2022-10-28T14:45:35.446Z,23.65
2022-10-28T14:48:30.539Z,23.60
2022-10-28T14:51:01.191Z,23.53
2022-10-28T14:53:34.473Z,23.48
2022-10-28T14:56:19.625Z,23.54
2022-10-28T14:58:46.467Z,23.37
2022-10-28T15:01:16.141Z,23.39
2022-10-28T15:03:49.922Z,23.50
2022-10-28T15:06:27.066Z,23.50
2022-10-28T15:08:54.550Z,23.42
2022-10-28T15:11:22.202Z,23.32
2022-10-28T15:13:53.107Z,23.25
2022-10-28T15:16:22.298Z,23.18
2022-10-28T15:18:51.414Z,23.25
2022-10-28T15:21:21.228Z,23.04
2022-10-28T15:24:01.646Z,22.93
2022-10-28T15:26:28.619Z,23.04
2022-10-28T15:28:55.712Z,22.99
2022-10-28T15:31:22.663Z,22.95
2022-10-28T15:33:49.194Z,22.88
2022-10-28T15:36:22.088Z,22.86
2022-10-28T15:38:50.535Z,22.94
2022-10-28T15:41:23.634Z,22.94
2022-10-28T15:43:59.773Z,23.06
2022-10-28T15:46:27.299Z,23.05
2022-10-28T15:48:59.481Z,23.00
2022-10-28T15:51:26.418Z,23.01
2022-10-28T15:53:54.408Z,22.81
2022-10-28T15:56:26.774Z,22.71
2022-10-28T15:58:59.416Z,22.82
2022-10-28T16:01:29.163Z,22.91
2022-10-28T16:03:56.388Z,22.93
2022-10-28T16:06:37.919Z,22.91
2022-10-28T16:09:15.023Z,22.89
2022-10-28T16:11:54.299Z,22.77
2022-10-28T16:14:38.087Z,22.71
2022-10-28T16:17:15.897Z,22.73
2022-10-28T16:19:55.564Z,22.54
2022-10-28T16:22:24.637Z,22.45
2022-10-28T16:24:53.192Z,22.49
2022-10-28T16:27:32.502Z,22.46
2022-10-28T16:29:59.100Z,22.33
2022-10-28T16:32:35.327Z,22.34
2022-10-28T16:35:03.251Z,22.47
2022-10-28T16:37:32.319Z,22.44
2022-10-28T16:39:58.913Z,22.33
2022-10-28T16:42:26.477Z,22.24
2022-10-28T16:44:53.066Z,22.21
2022-10-28T16:47:21.962Z,22.27
2022-10-28T16:49:54.464Z,22.28
2022-10-28T16:52:25.699Z,22.31
2022-10-28T16:54:52.287Z,22.32
2022-10-28T16:57:20.329Z,22.34
2022-10-28T16:59:47.121Z,22.30
2022-10-28T17:02:25.822Z,22.36
2022-10-28T17:04:52.610Z,22.34
2022-10-28T17:07:19.161Z,22.31
2022-10-28T17:09:45.869Z,22.12
2022-10-28T17:12:17.662Z,22.23
2022-10-28T17:14:44.473Z,22.29
2022-10-28T17:17:11.544Z,22.25
2022-10-28T17:19:39.096Z,22.21
2022-10-28T17:22:09.270Z,22.37
2022-10-28T17:24:37.428Z,22.41
2022-10-28T17:27:05.083Z,22.39
2022-10-28T17:29:31.775Z,22.46
2022-10-28T17:31:58.344Z,22.44
2022-10-28T17:34:24.938Z,22.33
2022-10-28T17:36:51.482Z,22.22
2022-10-28T17:39:23.326Z,22.09
2022-10-28T17:41:52.778Z,21.99
2022-10-28T17:44:19.479Z,21.79
2022-10-28T17:46:48.575Z,21.85
2022-10-28T17:49:15.451Z,21.91
2022-10-28T17:51:41.978Z,21.99
2022-10-28T17:54:08.778Z,22.01
2022-10-28T17:56:36.452Z,21.94
2022-10-28T17:59:04.226Z,22.00
2022-10-28T18:01:32.992Z,22.11
2022-10-28T18:04:00.128Z,22.10
2022-10-28T18:06:26.813Z,22.07
2022-10-28T18:08:53.402Z,21.98
2022-10-28T18:11:20.455Z,21.83
2022-10-28T18:13:50.264Z,21.76
2022-10-28T18:16:22.312Z,21.76
2022-10-28T18:18:48.936Z,21.90
2022-10-28T18:21:15.569Z,22.06
2022-10-28T18:23:42.248Z,22.02
2022-10-28T18:26:13.753Z,22.08
2022-10-28T18:28:41.546Z,22.04
2022-10-28T18:31:14.490Z,22.03
2022-10-28T18:33:42.272Z,22.01
2022-10-28T18:36:14.381Z,21.99
2022-10-28T18:38:41.482Z,21.83
2022-10-28T18:41:28.919Z,21.76
2022-10-28T18:44:01.290Z,21.63
2022-10-28T18:46:29.486Z,21.48
2022-10-28T18:48:57.263Z,21.40
2022-10-28T18:51:24.716Z,21.42
2022-10-28T18:53:51.925Z,21.46
2022-10-28T18:56:24.029Z,21.23
2022-10-28T18:58:51.945Z,21.20
2022-10-28T19:01:24.786Z,21.16
2022-10-28T19:03:53.975Z,21.12
2022-10-28T19:06:21.511Z,21.11
2022-10-28T19:08:56.313Z,21.06
2022-10-28T19:11:29.972Z,20.95
2022-10-28T19:14:01.789Z,21.00
2022-10-28T19:16:30.178Z,20.97
2022-10-28T19:18:58.309Z,20.92
2022-10-28T19:21:26.035Z,20.93
2022-10-28T19:23:53.073Z,20.89
2022-10-28T19:26:20.143Z,20.87
2022-10-28T19:28:48.042Z,20.76
2022-10-28T19:31:19.807Z,20.75
2022-10-28T19:33:46.765Z,20.92
2022-10-28T19:36:21.191Z,20.88
2022-10-28T19:38:49.812Z,20.79
2022-10-28T19:41:19.270Z,20.73
2022-10-28T19:43:46.847Z,20.76
2022-10-28T19:46:20.528Z,20.77
2022-10-28T19:48:53.130Z,20.76
2022-10-28T19:51:22.200Z,20.76
2022-10-28T19:53:53.512Z,20.78
2022-10-28T19:56:21.288Z,20.68
2022-10-28T19:58:51.961Z,20.65
2022-10-28T20:01:20.736Z,20.76
2022-10-28T20:03:49.586Z,20.77
2022-10-28T20:06:18.165Z,20.83
2022-10-28T20:08:49.251Z,20.81
2022-10-28T20:15:00.040Z,20.94
2022-10-28T20:17:26.604Z,20.90
2022-10-28T20:19:53.146Z,20.88
2022-10-28T20:22:19.637Z,20.79
2022-10-28T20:24:46.200Z,20.93
2022-10-28T20:27:12.744Z,21.13
2022-10-28T20:29:39.269Z,21.13
2022-10-28T20:32:05.811Z,21.11
2022-10-28T20:34:32.392Z,21.00
2022-10-28T20:36:58.862Z,20.90
2022-10-28T20:39:26.076Z,21.05
2022-10-28T20:41:52.676Z,20.97
2022-10-28T20:44:20.039Z,20.95
2022-10-28T20:46:47.790Z,20.85
2022-10-28T20:49:14.601Z,20.89
2022-10-28T20:51:42.070Z,20.88
2022-10-28T20:54:08.888Z,20.67
2022-10-28T20:56:38.049Z,20.63
2022-10-28T20:59:04.746Z,20.67
2022-10-28T21:01:36.470Z,20.87
2022-10-28T21:04:06.122Z,20.96
2022-10-28T21:06:33.362Z,20.93
2022-10-28T21:09:00.232Z,20.90
2022-10-28T21:11:28.182Z,20.84
2022-10-28T21:14:00.327Z,20.83
2022-10-28T21:16:28.482Z,21.01
2022-10-28T21:18:55.520Z,20.82
2022-10-28T21:21:24.194Z,20.84
2022-10-28T21:23:51.230Z,20.82
2022-10-28T21:26:17.980Z,20.87
2022-10-28T21:28:48.209Z,20.97
2022-10-28T21:31:16.509Z,20.70
2022-10-28T21:33:43.180Z,20.76
2022-10-28T21:36:18.802Z,20.81
2022-10-28T21:38:45.819Z,20.69
2022-10-28T21:41:15.888Z,20.53
2022-10-28T21:43:47.590Z,20.54
2022-10-28T21:46:15.717Z,20.58
2022-10-28T21:48:42.265Z,20.60
2022-10-28T21:51:13.596Z,20.56
2022-10-28T21:53:42.242Z,20.59
2022-10-28T21:56:16.946Z,20.61
2022-10-28T21:58:44.775Z,20.49
2022-10-28T22:01:13.739Z,20.54
2022-10-28T22:03:41.041Z,20.41
2022-10-28T22:06:07.815Z,20.44
2022-10-28T22:08:34.633Z,20.48
2022-10-28T22:11:07.121Z,20.46
2022-10-28T22:13:34.489Z,20.49
2022-10-28T22:16:03.990Z,20.44
2022-10-28T22:18:32.410Z,20.47
2022-10-28T22:21:09.221Z,20.63
2022-10-28T22:23:36.692Z,20.76
2022-10-28T22:26:05.539Z,20.69
2022-10-28T22:28:32.225Z,20.52
2022-10-28T22:31:04.892Z,20.49
2022-10-28T22:33:31.910Z,20.42
2022-10-28T22:36:00.778Z,20.53
2022-10-28T22:38:28.288Z,20.58
2022-10-28T22:41:20.662Z,20.55
2022-10-28T22:43:58.667Z,20.44
2022-10-28T22:46:31.712Z,20.50
2022-10-28T22:48:58.345Z,20.55
2022-10-28T22:51:25.200Z,20.53
2022-10-28T22:53:51.926Z,20.39
2022-10-28T22:56:21.139Z,20.27
2022-10-28T22:58:56.705Z,20.16
2022-10-28T23:01:23.790Z,20.15
2022-10-28T23:03:52.567Z,20.26
2022-10-28T23:06:21.411Z,20.36
2022-10-28T23:08:48.668Z,20.35
2022-10-28T23:11:16.726Z,20.33
2022-10-28T23:13:43.462Z,20.36
2022-10-28T23:16:12.452Z,20.35
2022-10-28T23:18:39.322Z,20.31
2022-10-28T23:21:20.141Z,20.24
2022-10-28T23:23:51.172Z,20.37
2022-10-28T23:26:21.282Z,20.44
2022-10-28T23:28:52.560Z,20.44
2022-10-28T23:31:20.587Z,20.47
2022-10-28T23:33:47.305Z,20.48
2022-10-28T23:36:15.018Z,20.42
2022-10-28T23:38:42.184Z,20.42
2022-10-28T23:41:14.462Z,20.40
2022-10-28T23:43:42.646Z,20.29
2022-10-28T23:46:09.594Z,20.20
2022-10-28T23:48:36.364Z,20.13
2022-10-28T23:51:03.490Z,20.17
2022-10-28T23:53:30.805Z,20.09
2022-10-28T23:55:57.789Z,19.95
2022-10-28T23:58:24.740Z,20.07
